< Typhoon 195827 1958 Season Typhoon 195829 >
Typhoon 195828 (NANCY)
General InformationTrack Information on Google Maps || Disaster Info.ResourceGoogle EarthGE AnimationAtom FeedGeoJSON
Detalied Best Track (Time Zone = UTC)
Year Month Day Hour Lat. Long. Pressure (hPa) Wind (kt) Class Image Chart
1958 11 21 18 12.0 131.6 1006 0 2 -- Chart
1958 11 22 00 12.1 131.2 998 0 2 -- Chart
1958 11 22 06 12.4 130.5 995 0 9 -- Chart
1958 11 22 12 12.8 130.2 995 0 9 -- Chart
1958 11 22 18 13.2 129.8 988 0 9 -- Chart
1958 11 23 00 13.9 129.2 985 0 9 -- Chart
1958 11 23 06 14.3 129.0 975 0 9 -- Chart
1958 11 23 12 15.0 128.3 960 0 9 -- Chart
1958 11 23 18 16.0 128.5 950 0 9 -- Chart
1958 11 24 00 16.7 128.8 935 0 9 -- Chart
1958 11 24 06 17.6 129.4 925 0 9 -- Chart
1958 11 24 12 18.3 129.8 920 0 9 -- Chart
1958 11 24 18 19.3 130.5 930 0 9 -- Chart
1958 11 25 00 20.2 131.2 945 0 9 -- Chart
1958 11 25 06 21.1 132.0 945 0 9 -- Chart
1958 11 25 12 22.1 133.2 950 0 9 -- Chart
1958 11 25 18 22.8 134.5 970 0 9 -- Chart
1958 11 26 00 23.3 135.6 995 0 9 -- Chart
1958 11 26 06 23.7 137.2 996 0 9 -- Chart
1958 11 26 12 22.0 139.8 1002 0 9 -- Chart
1958 11 26 18 22.0 141.5 1002 0 9 -- Chart
Japan Meteorological Agency Best Track Data | Correction Date : 1990-10-17
< Typhoon 195827 1958 Season Typhoon 195829 >

Help